sensor_id;sensor_type;location;lat;lon;timestamp;pressure;altitude;pressure_sealevel;temperature;humidity
19777;BME280;10047;42.490;26.012;2023-07-20T00:02:10;100179.88;;;26.18;100.00
19777;BME280;10047;42.490;26.012;2023-07-20T00:04:36;100159.56;;;26.12;100.00
19777;BME280;10047;42.490;26.012;2023-07-20T00:07:01;100172.16;;;26.35;100.00
19777;BME280;10047;42.490;26.012;2023-07-20T00:09:27;100249.03;;;26.31;100.00
19777;BME280;10047;42.490;26.012;2023-07-20T00:11:52;100322.25;;;26.68;100.00
19777;BME280;10047;42.490;26.012;2023-07-20T00:17:39;100373.38;;;26.31;100.00
19777;BME280;10047;42.490;26.012;2023-07-20T00:20:06;100365.00;;;26.96;100.00
19777;BME280;10047;42.490;26.012;2023-07-20T00:22:31;100313.03;;;27.21;100.00
19777;BME280;10047;42.490;26.012;2023-07-20T00:28:19;100293.06;;;27.76;100.00
19777;BME280;10047;42.490;26.012;2023-07-20T00:30:44;100230.34;;;27.39;100.00
19777;BME280;10047;42.490;26.012;2023-07-20T00:33:10;100252.16;;;27.85;100.00
19777;BME280;10047;42.490;26.012;2023-07-20T00:35:37;100182.19;;;27.52;100.00
19777;BME280;10047;42.490;26.012;2023-07-20T00:38:03;100217.16;;;27.68;100.00
19777;BME280;10047;42.490;26.012;2023-07-20T00:40:34;100154.47;;;27.41;100.00
19777;BME280;10047;42.490;26.012;2023-07-20T00:43:00;100201.72;;;27.75;100.00
19777;BME280;10047;42.490;26.012;2023-07-20T00:48:47;100127.00;;;27.37;100.00
19777;BME280;10047;42.490;26.012;2023-07-20T00:51:12;100102.66;;;27.36;100.00
19777;BME280;10047;42.490;26.012;2023-07-20T00:53:38;100101.34;;;27.23;100.00
19777;BME280;10047;42.490;26.012;2023-07-20T00:56:04;100104.91;;;27.22;100.00
19777;BME280;10047;42.490;26.012;2023-07-20T01:01:51;100150.22;;;27.58;100.00
19777;BME280;10047;42.490;26.012;2023-07-20T01:04:17;100119.31;;;27.35;100.00
19777;BME280;10047;42.490;26.012;2023-07-20T01:06:53;100100.19;;;27.35;100.00
19777;BME280;10047;42.490;26.012;2023-07-20T01:09:33;100136.41;;;27.48;100.00
19777;BME280;10047;42.490;26.012;2023-07-20T01:12:07;100138.31;;;27.55;100.00
19777;BME280;10047;42.490;26.012;2023-07-20T01:14:34;100118.84;;;27.40;100.00
19777;BME280;10047;42.490;26.012;2023-07-20T01:17:00;100050.81;;;26.87;100.00
19777;BME280;10047;42.490;26.012;2023-07-20T01:19:25;100054.59;;;27.20;100.00
19777;BME280;10047;42.490;26.012;2023-07-20T01:25:23;100078.56;;;27.42;100.00
19777;BME280;10047;42.490;26.012;2023-07-20T01:34:00;100043.56;;;27.53;100.00
19777;BME280;10047;42.490;26.012;2023-07-20T01:36:30;100019.72;;;27.56;100.00
19777;BME280;10047;42.490;26.012;2023-07-20T01:38:56;99978.75;;;27.57;100.00
19777;BME280;10047;42.490;26.012;2023-07-20T01:41:22;99943.16;;;27.38;100.00
19777;BME280;10047;42.490;26.012;2023-07-20T01:47:09;99955.66;;;27.70;100.00
19777;BME280;10047;42.490;26.012;2023-07-20T01:49:35;99939.84;;;27.54;100.00
19777;BME280;10047;42.490;26.012;2023-07-20T01:52:00;99894.63;;;27.18;100.00
19777;BME280;10047;42.490;26.012;2023-07-20T01:54:25;99894.84;;;27.24;100.00
19777;BME280;10047;42.490;26.012;2023-07-20T01:56:51;99913.00;;;27.43;100.00
19777;BME280;10047;42.490;26.012;2023-07-20T01:59:16;99887.25;;;27.31;100.00
19777;BME280;10047;42.490;26.012;2023-07-20T02:01:42;99901.19;;;27.39;100.00
19777;BME280;10047;42.490;26.012;2023-07-20T02:04:07;99941.78;;;27.52;100.00
19777;BME280;10047;42.490;26.012;2023-07-20T02:06:32;99926.59;;;27.47;100.00
19777;BME280;10047;42.490;26.012;2023-07-20T02:08:58;99940.03;;;27.34;100.00
19777;BME280;10047;42.490;26.012;2023-07-20T02:11:24;99894.63;;;27.18;100.00
19777;BME280;10047;42.490;26.012;2023-07-20T02:13:49;99922.78;;;27.41;100.00
19777;BME280;10047;42.490;26.012;2023-07-20T02:16:14;99947.69;;;27.54;100.00
19777;BME280;10047;42.490;26.012;2023-07-20T02:18:40;99868.44;;;27.10;100.00
19777;BME280;10047;42.490;26.012;2023-07-20T02:21:05;99930.97;;;27.29;100.00
19777;BME280;10047;42.490;26.012;2023-07-20T02:23:31;99892.50;;;27.13;100.00
19777;BME280;10047;42.490;26.012;2023-07-20T02:25:57;99888.09;;;26.96;100.00
19777;BME280;10047;42.490;26.012;2023-07-20T02:31:44;99872.72;;;26.48;100.00
19777;BME280;10047;42.490;26.012;2023-07-20T02:34:09;99890.19;;;26.48;100.00
19777;BME280;10047;42.490;26.012;2023-07-20T02:36:35;99926.31;;;26.70;100.00
19777;BME280;10047;42.490;26.012;2023-07-20T02:39:01;99966.78;;;27.01;100.00
19777;BME280;10047;42.490;26.012;2023-07-20T02:41:30;99950.44;;;26.99;100.00
19777;BME280;10047;42.490;26.012;2023-07-20T02:43:55;99910.56;;;26.62;100.00
19777;BME280;10047;42.490;26.012;2023-07-20T02:46:22;99965.78;;;26.85;100.00
19777;BME280;10047;42.490;26.012;2023-07-20T02:52:09;99998.09;;;26.84;100.00
19777;BME280;10047;42.490;26.012;2023-07-20T02:54:34;99943.03;;;26.50;100.00
19777;BME280;10047;42.490;26.012;2023-07-20T02:56:59;99988.84;;;26.89;100.00
19777;BME280;10047;42.490;26.012;2023-07-20T02:59:26;99990.84;;;26.68;100.00
19777;BME280;10047;42.490;26.012;2023-07-20T03:05:14;100014.44;;;26.39;100.00
19777;BME280;10047;42.490;26.012;2023-07-20T03:07:39;100015.63;;;26.54;100.00
19777;BME280;10047;42.490;26.012;2023-07-20T03:10:05;99981.59;;;26.10;100.00
19777;BME280;10047;42.490;26.012;2023-07-20T03:12:34;99933.72;;;25.92;100.00
19777;BME280;10047;42.490;26.012;2023-07-20T03:14:59;100031.06;;;26.38;100.00
19777;BME280;10047;42.490;26.012;2023-07-20T03:17:25;100047.16;;;26.24;100.00
19777;BME280;10047;42.490;26.012;2023-07-20T03:19:50;100054.03;;;26.16;100.00
19777;BME280;10047;42.490;26.012;2023-07-20T03:25:37;100060.34;;;25.65;100.00
19777;BME280;10047;42.490;26.012;2023-07-20T03:28:04;100085.00;;;25.42;100.00
19777;BME280;10047;42.490;26.012;2023-07-20T03:30:29;100037.00;;;25.35;100.00
19777;BME280;10047;42.490;26.012;2023-07-20T03:32:54;100080.88;;;25.40;100.00
19777;BME280;10047;42.490;26.012;2023-07-20T03:38:41;100071.66;;;25.36;100.00
19777;BME280;10047;42.490;26.012;2023-07-20T03:44:29;100131.88;;;25.42;100.00
19777;BME280;10047;42.490;26.012;2023-07-20T03:50:16;100167.72;;;25.78;100.00
19777;BME280;10047;42.490;26.012;2023-07-20T03:52:41;100146.47;;;25.34;100.00
19777;BME280;10047;42.490;26.012;2023-07-20T03:55:07;100096.28;;;25.22;100.00
19777;BME280;10047;42.490;26.012;2023-07-20T03:57:32;100152.66;;;25.92;100.00
19777;BME280;10047;42.490;26.012;2023-07-20T04:03:20;100168.91;;;25.55;100.00
19777;BME280;10047;42.490;26.012;2023-07-20T04:09:07;100206.38;;;25.73;100.00
19777;BME280;10047;42.490;26.012;2023-07-20T04:14:54;100145.75;;;25.62;100.00
19777;BME280;10047;42.490;26.012;2023-07-20T04:17:20;100195.00;;;25.74;100.00
19777;BME280;10047;42.490;26.012;2023-07-20T04:19:45;100206.94;;;25.77;100.00
19777;BME280;10047;42.490;26.012;2023-07-20T04:25:32;100203.38;;;25.78;100.00
19777;BME280;10047;42.490;26.012;2023-07-20T04:28:05;100198.03;;;25.89;100.00
19777;BME280;10047;42.490;26.012;2023-07-20T04:30:34;100207.50;;;25.81;100.00
19777;BME280;10047;42.490;26.012;2023-07-20T04:33:00;100205.75;;;25.91;100.00
19777;BME280;10047;42.490;26.012;2023-07-20T04:35:48;100210.88;;;26.21;100.00
19777;BME280;10047;42.490;26.012;2023-07-20T04:41:35;100228.72;;;26.25;100.00
19777;BME280;10047;42.490;26.012;2023-07-20T04:44:01;100213.34;;;26.32;100.00
19777;BME280;10047;42.490;26.012;2023-07-20T04:46:27;100137.84;;;25.83;100.00
19777;BME280;10047;42.490;26.012;2023-07-20T04:48:52;100163.94;;;26.30;100.00
19777;BME280;10047;42.490;26.012;2023-07-20T04:51:18;100209.22;;;26.68;100.00
19777;BME280;10047;42.490;26.012;2023-07-20T04:53:46;100127.81;;;26.45;100.00
19777;BME280;10047;42.490;26.012;2023-07-20T04:56:12;100155.91;;;26.89;100.00
19777;BME280;10047;42.490;26.012;2023-07-20T04:58:37;100218.59;;;27.16;100.00
19777;BME280;10047;42.490;26.012;2023-07-20T05:01:03;100178.44;;;27.27;100.00
19777;BME280;10047;42.490;26.012;2023-07-20T05:03:28;100123.13;;;27.04;100.00
19777;BME280;10047;42.490;26.012;2023-07-20T05:05:54;100187.03;;;27.47;100.00
19777;BME280;10047;42.490;26.012;2023-07-20T05:11:41;100163.78;;;27.71;100.00
19777;BME280;10047;42.490;26.012;2023-07-20T05:14:07;100097.28;;;27.38;100.00
19777;BME280;10047;42.490;26.012;2023-07-20T05:16:32;100140.69;;;27.49;100.00
19777;BME280;10047;42.490;26.012;2023-07-20T05:22:19;100161.69;;;27.92;100.00
19777;BME280;10047;42.490;26.012;2023-07-20T05:24:45;100109.50;;;27.65;100.00
19777;BME280;10047;42.490;26.012;2023-07-20T05:27:10;100141.47;;;28.29;100.00
19777;BME280;10047;42.490;26.012;2023-07-20T05:29:36;100128.69;;;28.26;100.00
19777;BME280;10047;42.490;26.012;2023-07-20T05:35:23;100131.97;;;28.71;100.00
19777;BME280;10047;42.490;26.012;2023-07-20T05:37:49;100114.44;;;28.97;100.00
19777;BME280;10047;42.490;26.012;2023-07-20T05:40:15;100056.16;;;28.36;100.00
19777;BME280;10047;42.490;26.012;2023-07-20T05:42:45;100090.50;;;28.92;100.00
19777;BME280;10047;42.490;26.012;2023-07-20T05:45:12;100041.19;;;28.72;100.00
19777;BME280;10047;42.490;26.012;2023-07-20T05:47:37;100050.44;;;29.00;100.00
19777;BME280;10047;42.490;26.012;2023-07-20T05:50:03;100032.94;;;29.08;100.00
19777;BME280;10047;42.490;26.012;2023-07-20T05:55:54;100029.44;;;29.50;100.00
19777;BME280;10047;42.490;26.012;2023-07-20T06:01:41;100038.78;;;29.44;100.00
19777;BME280;10047;42.490;26.012;2023-07-20T06:04:06;100013.19;;;29.14;100.00
19777;BME280;10047;42.490;26.012;2023-07-20T06:06:32;100015.38;;;29.43;100.00
19777;BME280;10047;42.490;26.012;2023-07-20T06:08:57;100071.13;;;30.01;100.00
19777;BME280;10047;42.490;26.012;2023-07-20T06:11:23;100076.53;;;30.32;100.00
19777;BME280;10047;42.490;26.012;2023-07-20T06:13:48;100014.75;;;29.73;100.00
19777;BME280;10047;42.490;26.012;2023-07-20T06:16:13;100062.75;;;30.38;100.00
19777;BME280;10047;42.490;26.012;2023-07-20T06:18:39;100006.34;;;30.10;100.00
19777;BME280;10047;42.490;26.012;2023-07-20T06:21:04;100017.13;;;30.94;100.00
19777;BME280;10047;42.490;26.012;2023-07-20T06:23:30;100050.69;;;31.06;100.00
19777;BME280;10047;42.490;26.012;2023-07-20T06:25:55;100038.53;;;31.13;100.00
19777;BME280;10047;42.490;26.012;2023-07-20T06:31:42;99996.84;;;30.71;100.00
19777;BME280;10047;42.490;26.012;2023-07-20T06:37:28;100037.19;;;32.08;100.00
19777;BME280;10047;42.490;26.012;2023-07-20T06:39:54;100010.41;;;32.04;100.00
19777;BME280;10047;42.490;26.012;2023-07-20T06:42:19;99959.53;;;31.75;100.00
19777;BME280;10047;42.490;26.012;2023-07-20T06:48:19;99999.09;;;32.18;100.00
19777;BME280;10047;42.490;26.012;2023-07-20T06:50:45;100001.59;;;32.85;100.00
19777;BME280;10047;42.490;26.012;2023-07-20T06:53:10;100005.09;;;33.06;100.00
19777;BME280;10047;42.490;26.012;2023-07-20T06:55:36;99999.81;;;32.41;100.00
19777;BME280;10047;42.490;26.012;2023-07-20T06:58:01;99984.38;;;31.95;100.00
19777;BME280;10047;42.490;26.012;2023-07-20T07:00:27;99999.88;;;32.92;100.00
19777;BME280;10047;42.490;26.012;2023-07-20T07:02:52;99969.16;;;32.49;100.00
19777;BME280;10047;42.490;26.012;2023-07-20T07:08:39;99985.97;;;32.98;100.00
19777;BME280;10047;42.490;26.012;2023-07-20T07:11:05;99921.28;;;32.16;100.00
19777;BME280;10047;42.490;26.012;2023-07-20T07:13:30;99960.25;;;33.00;100.00
19777;BME280;10047;42.490;26.012;2023-07-20T07:15:56;99967.97;;;33.22;100.00
19777;BME280;10047;42.490;26.012;2023-07-20T07:18:21;99943.09;;;32.24;100.00
19777;BME280;10047;42.490;26.012;2023-07-20T07:20:53;99971.56;;;32.65;100.00
19777;BME280;10047;42.490;26.012;2023-07-20T07:23:18;99941.22;;;33.25;100.00
19777;BME280;10047;42.490;26.012;2023-07-20T07:29:05;99970.41;;;33.24;100.00
19777;BME280;10047;42.490;26.012;2023-07-20T07:31:35;99936.31;;;33.22;100.00
19777;BME280;10047;42.490;26.012;2023-07-20T07:34:01;99937.41;;;33.77;100.00
19777;BME280;10047;42.490;26.012;2023-07-20T07:39:49;99974.78;;;33.80;100.00
19777;BME280;10047;42.490;26.012;2023-07-20T07:42:16;99974.09;;;33.99;100.00
19777;BME280;10047;42.490;26.012;2023-07-20T07:44:44;99931.34;;;33.34;100.00
19777;BME280;10047;42.490;26.012;2023-07-20T07:47:09;99959.28;;;33.71;100.00
19777;BME280;10047;42.490;26.012;2023-07-20T07:49:37;99883.09;;;33.40;100.00
19777;BME280;10047;42.490;26.012;2023-07-20T07:52:03;99857.09;;;32.67;100.00
19777;BME280;10047;42.490;26.012;2023-07-20T07:54:29;99935.88;;;33.95;100.00
19777;BME280;10047;42.490;26.012;2023-07-20T08:00:16;99977.69;;;34.54;100.00
19777;BME280;10047;42.490;26.012;2023-07-20T08:02:44;99909.81;;;34.54;100.00
19777;BME280;10047;42.490;26.012;2023-07-20T08:05:10;99973.72;;;34.77;100.00
19777;BME280;10047;42.490;26.012;2023-07-20T08:07:38;99985.41;;;35.09;100.00
19777;BME280;10047;42.490;26.012;2023-07-20T08:10:04;99955.91;;;33.83;100.00
19777;BME280;10047;42.490;26.012;2023-07-20T08:12:30;99976.16;;;34.79;100.00
19777;BME280;10047;42.490;26.012;2023-07-20T08:14:56;99956.53;;;34.47;100.00
19777;BME280;10047;42.490;26.012;2023-07-20T08:17:21;99966.38;;;34.32;100.00
19777;BME280;10047;42.490;26.012;2023-07-20T08:19:46;99936.34;;;34.40;100.00
19777;BME280;10047;42.490;26.012;2023-07-20T08:22:12;99986.03;;;35.11;100.00
19777;BME280;10047;42.490;26.012;2023-07-20T08:27:59;99944.56;;;33.89;100.00
19777;BME280;10047;42.490;26.012;2023-07-20T08:33:50;99928.44;;;35.26;100.00
19777;BME280;10047;42.490;26.012;2023-07-20T08:36:16;99923.63;;;34.16;100.00
19777;BME280;10047;42.490;26.012;2023-07-20T08:38:41;99967.03;;;34.94;100.00
19777;BME280;10047;42.490;26.012;2023-07-20T08:41:08;99926.94;;;34.78;100.00
19777;BME280;10047;42.490;26.012;2023-07-20T08:43:53;99938.41;;;35.24;100.00
19777;BME280;10047;42.490;26.012;2023-07-20T08:46:20;99955.38;;;35.49;100.00
19777;BME280;10047;42.490;26.012;2023-07-20T08:48:47;99955.63;;;34.81;100.00
19777;BME280;10047;42.490;26.012;2023-07-20T08:51:12;99971.03;;;35.77;100.00
19777;BME280;10047;42.490;26.012;2023-07-20T08:53:38;99956.75;;;35.19;100.00
19777;BME280;10047;42.490;26.012;2023-07-20T08:59:25;99973.41;;;36.18;100.00
19777;BME280;10047;42.490;26.012;2023-07-20T09:01:53;99975.91;;;35.87;100.00
19777;BME280;10047;42.490;26.012;2023-07-20T09:04:19;99957.56;;;35.26;100.00
19777;BME280;10047;42.490;26.012;2023-07-20T09:06:44;99910.16;;;35.12;100.00
19777;BME280;10047;42.490;26.012;2023-07-20T09:09:10;99896.31;;;35.10;100.00
19777;BME280;10047;42.490;26.012;2023-07-20T09:11:36;99950.63;;;35.84;100.00
19777;BME280;10047;42.490;26.012;2023-07-20T09:14:03;99960.19;;;35.92;100.00
19777;BME280;10047;42.490;26.012;2023-07-20T09:19:50;99927.84;;;35.44;100.00
19777;BME280;10047;42.490;26.012;2023-07-20T09:22:16;99948.56;;;36.12;100.00
19777;BME280;10047;42.490;26.012;2023-07-20T09:24:43;99910.31;;;35.82;100.00
19777;BME280;10047;42.490;26.012;2023-07-20T09:27:08;99905.28;;;35.48;100.00
19777;BME280;10047;42.490;26.012;2023-07-20T09:32:56;99908.78;;;36.25;100.00
19777;BME280;10047;42.490;26.012;2023-07-20T09:35:22;99956.44;;;36.83;100.00
19777;BME280;10047;42.490;26.012;2023-07-20T09:38:00;99948.19;;;36.02;100.00
19777;BME280;10047;42.490;26.012;2023-07-20T09:40:26;99916.78;;;36.06;100.00
19777;BME280;10047;42.490;26.012;2023-07-20T09:42:53;99909.09;;;35.98;100.00
19777;BME280;10047;42.490;26.012;2023-07-20T09:45:41;99914.59;;;36.03;100.00
19777;BME280;10047;42.490;26.012;2023-07-20T09:48:08;99910.09;;;35.90;100.00
19777;BME280;10047;42.490;26.012;2023-07-20T09:50:39;99938.09;;;36.37;100.00
19777;BME280;10047;42.490;26.012;2023-07-20T09:53:06;99879.97;;;35.85;100.00
19777;BME280;10047;42.490;26.012;2023-07-20T09:55:32;99950.34;;;36.82;100.00
19777;BME280;10047;42.490;26.012;2023-07-20T09:58:00;99899.41;;;36.67;100.00
19777;BME280;10047;42.490;26.012;2023-07-20T10:00:25;99915.56;;;36.59;100.00
19777;BME280;10047;42.490;26.012;2023-07-20T10:02:51;99857.84;;;35.33;100.00
19777;BME280;10047;42.490;26.012;2023-07-20T10:05:17;99919.66;;;36.99;100.00
19777;BME280;10047;42.490;26.012;2023-07-20T10:07:48;99884.72;;;37.27;100.00
19777;BME280;10047;42.490;26.012;2023-07-20T10:10:17;99834.56;;;36.70;100.00
19777;BME280;10047;42.490;26.012;2023-07-20T10:12:46;99877.19;;;36.24;100.00
19777;BME280;10047;42.490;26.012;2023-07-20T10:15:28;99871.53;;;36.14;100.00
19777;BME280;10047;42.490;26.012;2023-07-20T10:20:51;99899.25;;;37.00;100.00
19777;BME280;10047;42.490;26.012;2023-07-20T10:23:19;99839.75;;;36.07;100.00
19777;BME280;10047;42.490;26.012;2023-07-20T10:25:45;99840.78;;;36.82;100.00
19777;BME280;10047;42.490;26.012;2023-07-20T10:31:34;99852.19;;;36.58;100.00
19777;BME280;10047;42.490;26.012;2023-07-20T10:34:00;99872.81;;;37.11;100.00
19777;BME280;10047;42.490;26.012;2023-07-20T10:36:27;99860.06;;;37.02;100.00
19777;BME280;10047;42.490;26.012;2023-07-20T10:38:54;99855.47;;;36.53;100.00
19777;BME280;10047;42.490;26.012;2023-07-20T10:44:08;99883.31;;;37.24;100.00
19777;BME280;10047;42.490;26.012;2023-07-20T10:50:01;99891.50;;;37.90;100.00
19777;BME280;10047;42.490;26.012;2023-07-20T10:52:37;99876.31;;;37.97;100.00
19777;BME280;10047;42.490;26.012;2023-07-20T10:55:15;99858.53;;;36.81;100.00
19777;BME280;10047;42.490;26.012;2023-07-20T10:57:41;99863.47;;;37.33;100.00
19777;BME280;10047;42.490;26.012;2023-07-20T11:00:12;99866.50;;;37.37;100.00
19777;BME280;10047;42.490;26.012;2023-07-20T11:02:51;99842.19;;;37.15;100.00
19777;BME280;10047;42.490;26.012;2023-07-20T11:08:45;99791.56;;;36.61;100.00
19777;BME280;10047;42.490;26.012;2023-07-20T11:14:02;99848.81;;;38.03;100.00
19777;BME280;10047;42.490;26.012;2023-07-20T11:16:45;99829.28;;;37.19;100.00
19777;BME280;10047;42.490;26.012;2023-07-20T11:19:15;99828.03;;;37.21;100.00
19777;BME280;10047;42.490;26.012;2023-07-20T11:25:03;99752.28;;;37.25;100.00
19777;BME280;10047;42.490;26.012;2023-07-20T11:27:28;99820.81;;;37.89;100.00
19777;BME280;10047;42.490;26.012;2023-07-20T11:29:54;99800.81;;;37.87;100.00
19777;BME280;10047;42.490;26.012;2023-07-20T11:32:23;99853.34;;;38.51;100.00
19777;BME280;10047;42.490;26.012;2023-07-20T11:34:49;99821.03;;;38.17;100.00
19777;BME280;10047;42.490;26.012;2023-07-20T11:37:15;99834.22;;;37.76;100.00
19777;BME280;10047;42.490;26.012;2023-07-20T11:39:41;99804.19;;;37.76;100.00
19777;BME280;10047;42.490;26.012;2023-07-20T11:45:28;99824.09;;;38.92;100.00
19777;BME280;10047;42.490;26.012;2023-07-20T11:47:58;99783.16;;;38.52;100.00
19777;BME280;10047;42.490;26.012;2023-07-20T11:50:24;99802.06;;;38.32;100.00
19777;BME280;10047;42.490;26.012;2023-07-20T11:56:10;99760.13;;;38.34;100.00
19777;BME280;10047;42.490;26.012;2023-07-20T11:58:36;99803.47;;;38.35;100.00
19777;BME280;10047;42.490;26.012;2023-07-20T12:01:06;99748.91;;;37.55;100.00
19777;BME280;10047;42.490;26.012;2023-07-20T12:06:53;99807.72;;;38.06;100.00
19777;BME280;10047;42.490;26.012;2023-07-20T12:09:20;99785.34;;;37.66;100.00
19777;BME280;10047;42.490;26.012;2023-07-20T12:11:49;99802.00;;;37.55;100.00
19777;BME280;10047;42.490;26.012;2023-07-20T12:17:42;99817.69;;;38.93;100.00
19777;BME280;10047;42.490;26.012;2023-07-20T12:20:08;99759.34;;;37.13;100.00
19777;BME280;10047;42.490;26.012;2023-07-20T12:22:40;99718.50;;;37.69;100.00
19777;BME280;10047;42.490;26.012;2023-07-20T12:28:29;99711.97;;;37.35;100.00
19777;BME280;10047;42.490;26.012;2023-07-20T12:30:55;99750.88;;;37.59;100.00
19777;BME280;10047;42.490;26.012;2023-07-20T12:33:23;99759.66;;;37.78;100.00
19777;BME280;10047;42.490;26.012;2023-07-20T12:35:49;99725.66;;;37.98;100.00
19777;BME280;10047;42.490;26.012;2023-07-20T12:38:15;99752.81;;;38.00;100.00
19777;BME280;10047;42.490;26.012;2023-07-20T12:40:41;99746.28;;;37.66;100.00
19777;BME280;10047;42.490;26.012;2023-07-20T12:43:07;99757.13;;;38.31;100.00
19777;BME280;10047;42.490;26.012;2023-07-20T12:45:33;99760.75;;;37.88;100.00
19777;BME280;10047;42.490;26.012;2023-07-20T12:47:58;99722.94;;;37.57;100.00
19777;BME280;10047;42.490;26.012;2023-07-20T12:50:24;99704.69;;;37.60;100.00
19777;BME280;10047;42.490;26.012;2023-07-20T12:56:11;99741.44;;;37.27;100.00
19777;BME280;10047;42.490;26.012;2023-07-20T12:58:36;99737.78;;;37.94;100.00
19777;BME280;10047;42.490;26.012;2023-07-20T13:01:02;99735.75;;;37.23;100.00
19777;BME280;10047;42.490;26.012;2023-07-20T13:03:27;99744.13;;;37.20;100.00
19777;BME280;10047;42.490;26.012;2023-07-20T13:05:53;99722.63;;;37.28;100.00
19777;BME280;10047;42.490;26.012;2023-07-20T13:08:19;99751.38;;;37.68;100.00
19777;BME280;10047;42.490;26.012;2023-07-20T13:10:44;99752.53;;;37.90;100.00
19777;BME280;10047;42.490;26.012;2023-07-20T13:13:10;99761.25;;;38.27;100.00
19777;BME280;10047;42.490;26.012;2023-07-20T13:15:43;99745.50;;;37.66;100.00
19777;BME280;10047;42.490;26.012;2023-07-20T13:18:10;99721.81;;;37.64;100.00
19777;BME280;10047;42.490;26.012;2023-07-20T13:23:57;99755.13;;;38.26;100.00
19777;BME280;10047;42.490;26.012;2023-07-20T13:26:22;99738.06;;;38.04;100.00
19777;BME280;10047;42.490;26.012;2023-07-20T13:28:47;99733.94;;;37.90;100.00
19777;BME280;10047;42.490;26.012;2023-07-20T13:31:13;99671.59;;;37.63;100.00
19777;BME280;10047;42.490;26.012;2023-07-20T13:37:01;99644.00;;;37.34;100.00
19777;BME280;10047;42.490;26.012;2023-07-20T13:39:27;99693.13;;;36.58;100.00
19777;BME280;10047;42.490;26.012;2023-07-20T13:41:53;99671.25;;;36.13;100.00
19777;BME280;10047;42.490;26.012;2023-07-20T13:47:43;99619.09;;;34.80;100.00
19777;BME280;10047;42.490;26.012;2023-07-20T13:50:10;99595.78;;;34.38;100.00
19777;BME280;10047;42.490;26.012;2023-07-20T13:52:36;99628.91;;;34.15;100.00
19777;BME280;10047;42.490;26.012;2023-07-20T13:55:02;99583.75;;;33.57;100.00
19777;BME280;10047;42.490;26.012;2023-07-20T13:57:27;99636.63;;;34.16;100.00
19777;BME280;10047;42.490;26.012;2023-07-20T13:59:53;99653.19;;;33.84;100.00
19777;BME280;10047;42.490;26.012;2023-07-20T14:02:18;99651.19;;;33.92;100.00
19777;BME280;10047;42.490;26.012;2023-07-20T14:04:43;99665.72;;;33.56;100.00
19777;BME280;10047;42.490;26.012;2023-07-20T14:07:09;99709.28;;;33.92;100.00
19777;BME280;10047;42.490;26.012;2023-07-20T14:09:34;99705.03;;;33.98;100.00
19777;BME280;10047;42.490;26.012;2023-07-20T14:12:00;99769.69;;;34.28;100.00
19777;BME280;10047;42.490;26.012;2023-07-20T14:14:25;99749.81;;;33.38;100.00
19777;BME280;10047;42.490;26.012;2023-07-20T14:16:50;100095.59;;;28.60;100.00
19777;BME280;10047;42.490;26.012;2023-07-20T14:19:16;100184.22;;;28.81;100.00
19777;BME280;10047;42.490;26.012;2023-07-20T14:21:41;100359.84;;;28.52;100.00
19777;BME280;10047;42.490;26.012;2023-07-20T14:24:07;100373.16;;;28.86;100.00
19777;BME280;10047;42.490;26.012;2023-07-20T14:26:32;100443.78;;;29.48;100.00
19777;BME280;10047;42.490;26.012;2023-07-20T14:32:19;100375.53;;;28.62;100.00
19777;BME280;10047;42.490;26.012;2023-07-20T14:34:44;100433.31;;;29.31;100.00
19777;BME280;10047;42.490;26.012;2023-07-20T14:37:10;100426.38;;;29.22;100.00
19777;BME280;10047;42.490;26.012;2023-07-20T14:39:35;100527.31;;;29.26;100.00
19777;BME280;10047;42.490;26.012;2023-07-20T14:42:01;100488.97;;;28.43;100.00
19777;BME280;10047;42.490;26.012;2023-07-20T14:44:28;100499.78;;;28.67;100.00
19777;BME280;10047;42.490;26.012;2023-07-20T14:46:54;100421.31;;;28.93;100.00
19777;BME280;10047;42.490;26.012;2023-07-20T14:49:20;100426.91;;;28.98;100.00
19777;BME280;10047;42.490;26.012;2023-07-20T14:51:45;100372.75;;;28.98;100.00
19777;BME280;10047;42.490;26.012;2023-07-20T14:54:12;100401.00;;;29.48;100.00
19777;BME280;10047;42.490;26.012;2023-07-20T14:59:59;100358.31;;;30.15;100.00
19777;BME280;10047;42.490;26.012;2023-07-20T15:02:24;100306.50;;;29.75;100.00
19777;BME280;10047;42.490;26.012;2023-07-20T15:04:50;100337.97;;;29.49;100.00
19777;BME280;10047;42.490;26.012;2023-07-20T15:10:38;100316.47;;;29.20;100.00
19777;BME280;10047;42.490;26.012;2023-07-20T15:13:03;100305.31;;;29.00;100.00
19777;BME280;10047;42.490;26.012;2023-07-20T15:15:29;100272.72;;;28.95;100.00
19777;BME280;10047;42.490;26.012;2023-07-20T15:21:16;100301.69;;;28.93;100.00
19777;BME280;10047;42.490;26.012;2023-07-20T15:23:45;100276.25;;;28.86;100.00
19777;BME280;10047;42.490;26.012;2023-07-20T15:26:11;100435.69;;;28.89;100.00
19777;BME280;10047;42.490;26.012;2023-07-20T15:28:37;100587.91;;;28.76;100.00
19777;BME280;10047;42.490;26.012;2023-07-20T15:31:04;100704.03;;;27.61;100.00
19777;BME280;10047;42.490;26.012;2023-07-20T15:33:29;100892.75;;;27.23;100.00
19777;BME280;10047;42.490;26.012;2023-07-20T15:39:17;101332.28;;;28.26;100.00
19777;BME280;10047;42.490;26.012;2023-07-20T15:41:42;101579.75;;;28.74;100.00
19777;BME280;10047;42.490;26.012;2023-07-20T15:44:07;101698.22;;;28.78;100.00
19777;BME280;10047;42.490;26.012;2023-07-20T15:49:04;101589.63;;;28.71;100.00